Time;durP1;ratioP1;P1;durP2;ratioP2;P2;SDS_P1;SDS_P2;PMS_P1;PMS_P2;Temp;Humidity;BMP_temperature;BMP_pressure;BME280_temperature;BME280_humidity;BME280_pressure;Samples;Min_cycle;Max_cycle;Signal;HPM_P1;HPM_P2
2022/09/14 00:00:58;;;;;;;;;;;13.70;99.90;;;;;;4928687;29;19958;-65
2022/09/14 00:03:23;;;;;;;;;;;13.60;99.90;;;;;;4922828;28;19934;-65
2022/09/14 00:05:49;;;;;;;;;;;13.60;99.90;;;;;;4921145;28;20291;-65
2022/09/14 00:08:14;;;;;;;;;;;13.60;99.90;;;;;;4925974;28;19919;-65
2022/09/14 00:10:44;;;;;;;;;;;13.60;99.90;;;;;;4916237;29;20295;-65
2022/09/14 00:13:10;;;;;;;;;;;13.60;99.90;;;;;;4934478;29;19919;-65
2022/09/14 00:15:37;;;;;;;;;;;13.60;99.90;;;;;;4920482;29;19929;-65
2022/09/14 00:18:03;;;;;;;;;;;13.60;99.90;;;;;;4929895;29;19919;-64
2022/09/14 00:20:29;;;;;;;;;;;13.60;99.90;;;;;;4950126;28;19973;-65
2022/09/14 00:22:54;;;;;;;;;;;13.60;99.90;;;;;;4948864;28;19922;-64
2022/09/14 00:25:20;;;;;;;;;;;13.60;99.90;;;;;;4935469;28;20357;-65
2022/09/14 00:27:45;;;;;;;;;;;13.60;99.90;;;;;;4926532;28;19923;-65
2022/09/14 00:30:11;;;;;;;;;;;13.60;99.90;;;;;;4933282;29;19964;-65
2022/09/14 00:32:37;;;;;;;;;;;13.60;99.90;;;;;;4951013;28;20017;-65
2022/09/14 00:35:03;;;;;;;;;;;13.70;99.90;;;;;;4935248;29;19993;-65
2022/09/14 00:37:28;;;;;;;;;;;13.70;99.90;;;;;;4924884;29;20333;-65
2022/09/14 00:39:54;;;;;;;;;;;13.40;99.90;;;;;;4919274;29;19923;-65
2022/09/14 00:42:19;;;;;;;;;;;13.70;99.90;;;;;;4933461;29;19918;-65
2022/09/14 00:44:45;;;;;;;;;;;13.70;99.90;;;;;;4928584;28;19980;-65
2022/09/14 00:47:11;;;;;;;;;;;13.70;99.90;;;;;;4937937;29;20383;-65
2022/09/14 00:49:38;;;;;;;;;;;13.70;99.90;;;;;;4925445;29;19966;-65
2022/09/14 00:52:08;;;;;;;;;;;13.70;99.90;;;;;;4925032;29;19926;-66
2022/09/14 00:54:55;;;;;;;;;;;13.70;99.90;;;;;;4928030;28;19918;-65
2022/09/14 00:57:21;;;;;;;;;;;13.60;99.90;;;;;;4935970;28;19962;-66
2022/09/14 00:59:48;;;;;;;;;;;13.50;99.90;;;;;;4929827;28;19931;-65
2022/09/14 01:02:14;;;;;;;;;;;13.50;99.90;;;;;;4935482;29;19918;-65
2022/09/14 01:04:40;;;;;;;;;;;13.50;99.90;;;;;;4930737;28;20310;-63
2022/09/14 01:07:25;;;;;;;;;;;13.40;99.90;;;;;;4925302;28;19925;-65
2022/09/14 01:10:03;;;;;;;;;;;13.40;99.90;;;;;;4930104;28;19919;-65
2022/09/14 01:12:38;;;;;;;;;;;13.30;99.90;;;;;;4918604;29;19989;-65
2022/09/14 01:15:22;;;;;;;;;;;13.30;99.90;;;;;;4922054;29;19919;-65
2022/09/14 01:17:50;;;;;;;;;;;13.40;99.90;;;;;;4965616;28;19929;-65
2022/09/14 01:20:24;;;;;;;;;;;13.30;99.90;;;;;;4942659;29;19922;-65
2022/09/14 01:23:08;;;;;;;;;;;13.30;99.90;;;;;;4919601;29;19923;-64
2022/09/14 01:25:53;;;;;;;;;;;13.30;99.90;;;;;;4925669;28;19954;-65
2022/09/14 01:28:23;;;;;;;;;;;13.30;99.90;;;;;;4942430;28;19926;-65
2022/09/14 01:30:49;;;;;;;;;;;13.30;99.90;;;;;;4930837;28;19918;-65
2022/09/14 01:33:21;;;;;;;;;;;13.20;99.90;;;;;;4940531;28;19919;-65
2022/09/14 01:35:50;;;;;;;;;;;13.20;99.90;;;;;;4929644;29;19942;-65
2022/09/14 01:38:21;;;;;;;;;;;13.20;99.90;;;;;;4930716;29;19923;-65
2022/09/14 01:40:48;;;;;;;;;;;13.20;99.90;;;;;;4913247;29;19929;-65
2022/09/14 01:43:16;;;;;;;;;;;13.10;99.90;;;;;;4940286;28;19942;-64
2022/09/14 01:45:45;;;;;;;;;;;13.10;99.90;;;;;;4937147;28;19922;-65
2022/09/14 01:48:11;;;;;;;;;;;13.00;99.90;;;;;;4923975;29;19926;-65
2022/09/14 01:50:38;;;;;;;;;;;13.10;99.90;;;;;;4945830;28;20400;-65
2022/09/14 01:53:08;;;;;;;;;;;13.00;99.90;;;;;;4916875;29;19919;-65
2022/09/14 01:55:38;;;;;;;;;;;13.00;99.90;;;;;;4924841;29;20304;-65
2022/09/14 01:58:08;;;;;;;;;;;12.90;99.90;;;;;;4947711;28;19919;-65
2022/09/14 02:00:35;;;;;;;;;;;12.90;99.90;;;;;;4917969;28;19918;-65
2022/09/14 02:03:04;;;;;;;;;;;12.90;99.90;;;;;;4926734;29;20332;-64
2022/09/14 02:05:37;;;;;;;;;;;12.90;99.90;;;;;;4926145;29;19930;-64
2022/09/14 02:08:02;;;;;;;;;;;12.80;99.90;;;;;;4922611;28;19919;-64
2022/09/14 02:10:28;;;;;;;;;;;12.80;99.90;;;;;;4945209;28;19925;-64
2022/09/14 02:12:54;;;;;;;;;;;12.80;99.90;;;;;;4939280;28;19923;-65
2022/09/14 02:15:20;;;;;;;;;;;12.80;99.90;;;;;;4975252;28;20300;-65
2022/09/14 02:17:46;;;;;;;;;;;12.80;99.90;;;;;;4941800;28;19926;-65
2022/09/14 02:20:20;;;;;;;;;;;12.80;99.90;;;;;;4922214;28;19923;-65
2022/09/14 02:22:45;;;;;;;;;;;12.80;99.90;;;;;;4929211;28;19925;-64
2022/09/14 02:25:11;;;;;;;;;;;12.80;99.90;;;;;;4928502;28;19919;-64
2022/09/14 02:27:36;;;;;;;;;;;12.80;99.90;;;;;;4930871;29;20433;-65
2022/09/14 02:30:02;;;;;;;;;;;12.80;99.90;;;;;;4927865;29;19972;-64
2022/09/14 02:32:28;;;;;;;;;;;12.80;99.90;;;;;;4926253;29;20390;-65
2022/09/14 02:35:03;;;;;;;;;;;12.80;99.90;;;;;;4921495;29;19969;-65
2022/09/14 02:37:51;;;;;;;;;;;12.80;99.90;;;;;;4928349;28;19925;-65
2022/09/14 02:40:22;;;;;;;;;;;12.80;99.90;;;;;;4926460;28;20363;-65
2022/09/14 02:43:06;;;;;;;;;;;12.80;99.90;;;;;;4929231;28;19958;-65
2022/09/14 02:45:32;;;;;;;;;;;12.80;99.90;;;;;;4934807;29;19929;-65
2022/09/14 02:47:57;;;;;;;;;;;12.80;99.90;;;;;;4929425;29;19919;-64
2022/09/14 02:50:32;;;;;;;;;;;12.80;99.90;;;;;;4934941;29;20350;-65
2022/09/14 02:52:57;;;;;;;;;;;12.90;99.90;;;;;;4927544;29;20018;-64
2022/09/14 02:55:25;;;;;;;;;;;12.90;99.90;;;;;;4943861;28;20005;-64
2022/09/14 02:58:01;;;;;;;;;;;12.90;99.90;;;;;;4928920;28;19919;-64
2022/09/14 03:00:27;;;;;;;;;;;12.90;99.90;;;;;;4934948;28;19930;-65
2022/09/14 03:02:53;;;;;;;;;;;12.90;99.90;;;;;;4931758;29;20018;-65
2022/09/14 03:05:18;;;;;;;;;;;12.90;99.90;;;;;;4929494;29;20009;-65
2022/09/14 03:07:44;;;;;;;;;;;12.90;99.90;;;;;;4930139;29;19919;-65
2022/09/14 03:10:10;;;;;;;;;;;12.90;99.90;;;;;;4928071;29;20383;-65
2022/09/14 03:12:37;;;;;;;;;;;12.90;99.90;;;;;;4946278;28;19926;-65
2022/09/14 03:15:02;;;;;;;;;;;12.90;99.90;;;;;;4925895;28;20334;-65
2022/09/14 03:17:28;;;;;;;;;;;12.90;99.90;;;;;;4945357;28;19926;-65
2022/09/14 03:19:53;;;;;;;;;;;12.90;99.90;;;;;;4930233;28;19929;-65
2022/09/14 03:22:19;;;;;;;;;;;12.90;99.90;;;;;;4926676;29;20430;-65
2022/09/14 03:24:44;;;;;;;;;;;12.90;99.90;;;;;;4931506;28;19998;-65
2022/09/14 03:27:10;;;;;;;;;;;12.90;99.90;;;;;;4929598;29;19922;-65
2022/09/14 03:29:35;;;;;;;;;;;12.90;99.90;;;;;;4932105;28;19919;-64
2022/09/14 03:32:01;;;;;;;;;;;12.90;99.90;;;;;;4919755;29;20419;-65
2022/09/14 03:34:26;;;;;;;;;;;12.90;99.90;;;;;;4931977;28;19977;-64
2022/09/14 03:36:52;;;;;;;;;;;12.90;99.90;;;;;;4981289;28;19923;-65
2022/09/14 03:39:17;;;;;;;;;;;12.90;99.90;;;;;;4937912;29;20024;-65
2022/09/14 03:41:43;;;;;;;;;;;12.80;99.90;;;;;;4935319;28;19919;-64
2022/09/14 03:44:08;;;;;;;;;;;12.90;99.90;;;;;;4969200;28;19924;-65
2022/09/14 03:46:34;;;;;;;;;;;12.90;99.90;;;;;;4939226;28;19923;-65
2022/09/14 03:49:00;;;;;;;;;;;12.90;99.90;;;;;;4919038;28;19919;-65
2022/09/14 03:51:25;;;;;;;;;;;13.00;99.90;;;;;;4915976;29;20275;-64
2022/09/14 03:53:51;;;;;;;;;;;13.00;99.90;;;;;;4963734;23;19927;-62
2022/09/14 03:56:18;;;;;;;;;;;12.90;99.90;;;;;;5051109;28;20295;-65
2022/09/14 03:58:44;;;;;;;;;;;13.00;99.90;;;;;;5047130;28;19963;-66
2022/09/14 04:01:12;;;;;;;;;;;13.20;99.90;;;;;;5052487;28;19928;-66
2022/09/14 04:03:38;;;;;;;;;;;12.90;99.90;;;;;;5048899;28;19921;-66
2022/09/14 04:06:04;;;;;;;;;;;12.90;99.90;;;;;;5052121;28;19923;-66
2022/09/14 04:08:31;;;;;;;;;;;12.90;99.90;;;;;;5066168;28;19985;-66
2022/09/14 04:10:56;;;;;;;;;;;12.90;99.90;;;;;;5050113;28;20015;-66
2022/09/14 04:13:22;;;;;;;;;;;12.90;99.90;;;;;;5050434;28;19992;-66
2022/09/14 04:15:57;;;;;;;;;;;12.90;99.90;;;;;;5052729;28;19920;-66
2022/09/14 04:18:24;;;;;;;;;;;12.90;99.90;;;;;;5049207;28;19923;-65
2022/09/14 04:20:53;;;;;;;;;;;12.90;99.90;;;;;;5052105;28;19960;-66
2022/09/14 04:23:19;;;;;;;;;;;12.90;99.90;;;;;;5051624;28;20000;-66
2022/09/14 04:25:44;;;;;;;;;;;12.90;99.90;;;;;;5049906;28;20262;-66
2022/09/14 04:28:10;;;;;;;;;;;12.90;99.90;;;;;;5050825;28;20380;-65
2022/09/14 04:30:36;;;;;;;;;;;12.90;99.90;;;;;;5051505;28;19917;-66
2022/09/14 04:33:01;;;;;;;;;;;12.90;99.90;;;;;;5049013;28;20392;-64
2022/09/14 04:35:27;;;;;;;;;;;13.00;99.90;;;;;;5050685;28;19916;-66
2022/09/14 04:37:53;;;;;;;;;;;13.00;99.90;;;;;;5066276;28;20429;-66
2022/09/14 04:40:20;;;;;;;;;;;13.00;99.90;;;;;;5051277;28;19921;-66
2022/09/14 04:42:46;;;;;;;;;;;13.00;99.90;;;;;;5050586;28;20317;-66
2022/09/14 04:45:12;;;;;;;;;;;13.00;99.90;;;;;;5054371;28;19917;-65
2022/09/14 04:47:37;;;;;;;;;;;13.10;99.90;;;;;;5050840;28;19989;-66
2022/09/14 04:50:03;;;;;;;;;;;13.00;99.90;;;;;;5049176;28;19962;-66
2022/09/14 04:52:29;;;;;;;;;;;13.10;99.90;;;;;;5051514;28;19924;-66
2022/09/14 04:54:54;;;;;;;;;;;13.10;99.90;;;;;;5048825;28;19916;-66
2022/09/14 04:57:20;;;;;;;;;;;13.10;99.90;;;;;;5048660;28;20260;-62
2022/09/14 04:59:45;;;;;;;;;;;13.10;99.90;;;;;;5051635;28;19921;-66
2022/09/14 05:02:11;;;;;;;;;;;13.10;99.90;;;;;;5050021;28;19943;-66
2022/09/14 05:04:36;;;;;;;;;;;13.10;99.90;;;;;;5058259;28;20384;-65
2022/09/14 05:07:02;;;;;;;;;;;13.10;99.90;;;;;;5051615;28;19916;-66
2022/09/14 05:09:27;;;;;;;;;;;13.10;99.90;;;;;;5049346;28;19944;-66
2022/09/14 05:11:53;;;;;;;;;;;13.10;99.90;;;;;;5049640;28;20391;-66
2022/09/14 05:14:18;;;;;;;;;;;13.20;99.90;;;;;;5048250;28;19923;-64
2022/09/14 05:16:44;;;;;;;;;;;13.20;99.90;;;;;;5051356;28;19956;-66
2022/09/14 05:19:11;;;;;;;;;;;13.10;99.90;;;;;;5049390;28;19916;-66
2022/09/14 05:21:37;;;;;;;;;;;13.20;99.90;;;;;;5049703;28;20411;-65
2022/09/14 05:24:04;;;;;;;;;;;13.20;99.90;;;;;;5048939;28;19924;-66
2022/09/14 05:26:30;;;;;;;;;;;13.20;99.90;;;;;;5045638;28;19917;-66
2022/09/14 05:28:57;;;;;;;;;;;13.20;99.90;;;;;;5048872;28;19916;-66
2022/09/14 05:31:23;;;;;;;;;;;13.20;99.90;;;;;;5049362;28;20334;-66
2022/09/14 05:33:48;;;;;;;;;;;13.20;99.90;;;;;;5050308;28;20007;-66
2022/09/14 05:36:14;;;;;;;;;;;13.30;99.90;;;;;;5050673;28;19964;-62
2022/09/14 05:38:40;;;;;;;;;;;13.20;99.90;;;;;;5042283;28;20014;-65
2022/09/14 05:41:06;;;;;;;;;;;13.20;99.90;;;;;;5047843;28;20399;-64
2022/09/14 05:43:32;;;;;;;;;;;13.20;99.90;;;;;;5047923;28;19923;-65
2022/09/14 05:46:01;;;;;;;;;;;13.20;99.90;;;;;;5041932;28;19916;-65
2022/09/14 05:48:30;;;;;;;;;;;13.30;99.90;;;;;;5048571;28;20265;-66
2022/09/14 05:51:06;;;;;;;;;;;13.30;99.90;;;;;;5049543;28;19917;-66
2022/09/14 05:53:32;;;;;;;;;;;13.30;99.90;;;;;;5049696;28;19916;-62
2022/09/14 05:56:16;;;;;;;;;;;13.30;99.90;;;;;;5049493;28;19923;-66
2022/09/14 05:58:42;;;;;;;;;;;13.30;99.90;;;;;;5054202;28;19967;-65
2022/09/14 06:01:10;;;;;;;;;;;13.30;99.90;;;;;;5048648;28;20365;-66
2022/09/14 06:03:36;;;;;;;;;;;13.40;99.90;;;;;;5048384;28;19917;-65
2022/09/14 06:06:03;;;;;;;;;;;13.40;99.90;;;;;;5047790;28;19917;-64
2022/09/14 06:08:28;;;;;;;;;;;13.40;99.90;;;;;;5047634;28;19956;-65
2022/09/14 06:10:54;;;;;;;;;;;13.40;99.90;;;;;;5049915;28;20006;-64
2022/09/14 06:13:21;;;;;;;;;;;13.40;99.90;;;;;;5049875;28;19916;-66
2022/09/14 06:15:47;;;;;;;;;;;13.40;99.90;;;;;;5048802;28;19916;-66
2022/09/14 06:18:12;;;;;;;;;;;13.50;99.90;;;;;;5044257;28;20379;-65
2022/09/14 06:20:38;;;;;;;;;;;13.50;99.90;;;;;;5049409;28;19924;-65
2022/09/14 06:23:03;;;;;;;;;;;13.50;99.90;;;;;;5048261;28;19924;-63
2022/09/14 06:25:30;;;;;;;;;;;13.60;99.90;;;;;;5048656;28;19970;-66
2022/09/14 06:27:55;;;;;;;;;;;13.60;99.90;;;;;;5049067;28;19917;-65
2022/09/14 06:30:21;;;;;;;;;;;13.60;99.90;;;;;;5047143;28;20414;-65
2022/09/14 06:32:46;;;;;;;;;;;13.90;99.90;;;;;;5046384;28;19940;-65
2022/09/14 06:35:12;;;;;;;;;;;13.70;99.90;;;;;;5047285;28;20195;-66
2022/09/14 06:37:37;;;;;;;;;;;13.80;99.90;;;;;;5041309;28;20376;-65
2022/09/14 06:40:03;;;;;;;;;;;13.80;99.90;;;;;;5038823;28;19924;-65
2022/09/14 06:42:29;;;;;;;;;;;13.80;99.90;;;;;;5048279;28;19920;-63
2022/09/14 06:44:55;;;;;;;;;;;13.90;99.90;;;;;;5045319;28;19916;-64
2022/09/14 06:47:20;;;;;;;;;;;13.90;99.90;;;;;;5049655;28;19982;-66
2022/09/14 06:49:46;;;;;;;;;;;13.90;99.90;;;;;;5041597;28;19978;-66
2022/09/14 06:52:12;;;;;;;;;;;14.00;99.90;;;;;;5047455;28;19917;-65
2022/09/14 06:54:37;;;;;;;;;;;14.00;99.90;;;;;;5045065;28;19972;-63
2022/09/14 06:57:03;;;;;;;;;;;14.10;99.90;;;;;;5044287;28;19917;-66
2022/09/14 06:59:28;;;;;;;;;;;14.10;99.90;;;;;;5036282;28;19924;-65
2022/09/14 07:01:55;;;;;;;;;;;14.10;99.90;;;;;;5018712;28;19921;-66
2022/09/14 07:04:20;;;;;;;;;;;14.20;99.90;;;;;;5036368;28;19917;-66
2022/09/14 07:06:47;;;;;;;;;;;14.20;99.90;;;;;;5040197;28;20407;-65
2022/09/14 07:09:13;;;;;;;;;;;14.30;99.90;;;;;;5043028;28;19923;-65
2022/09/14 07:11:39;;;;;;;;;;;14.30;99.90;;;;;;5043076;28;19935;-64
2022/09/14 07:14:06;;;;;;;;;;;14.40;99.90;;;;;;5042263;28;19917;-65
2022/09/14 07:16:33;;;;;;;;;;;14.40;99.90;;;;;;5037228;28;20140;-63
2022/09/14 07:19:00;;;;;;;;;;;14.50;99.90;;;;;;5047075;28;20303;-65
2022/09/14 07:21:26;;;;;;;;;;;14.50;99.90;;;;;;5048517;28;20400;-64
2022/09/14 07:23:52;;;;;;;;;;;14.60;99.90;;;;;;5051235;28;20385;-64
2022/09/14 07:26:22;;;;;;;;;;;14.60;99.90;;;;;;5048778;28;20412;-65
2022/09/14 07:28:50;;;;;;;;;;;14.70;99.90;;;;;;5050275;28;20370;-65
2022/09/14 07:31:21;;;;;;;;;;;14.70;99.90;;;;;;5050981;28;19917;-65
2022/09/14 07:33:47;;;;;;;;;;;14.80;99.90;;;;;;5051601;28;19973;-65
2022/09/14 07:36:13;;;;;;;;;;;14.80;99.90;;;;;;5048830;28;19924;-65
2022/09/14 07:38:39;;;;;;;;;;;14.90;99.90;;;;;;5048101;28;19921;-65
2022/09/14 07:41:05;;;;;;;;;;;15.00;99.90;;;;;;5049333;28;19920;-65
2022/09/14 07:43:31;;;;;;;;;;;15.00;99.90;;;;;;5052696;28;19959;-65
2022/09/14 07:45:56;;;;;;;;;;;15.10;99.90;;;;;;5052182;28;19959;-65
2022/09/14 07:48:22;;;;;;;;;;;15.20;99.90;;;;;;5050860;28;19921;-65
2022/09/14 07:50:57;;;;;;;;;;;15.30;99.90;;;;;;5052245;28;19917;-65
2022/09/14 07:53:23;;;;;;;;;;;15.40;99.90;;;;;;5052814;28;19916;-65
2022/09/14 07:55:48;;;;;;;;;;;15.50;99.90;;;;;;5047982;28;19948;-65
2022/09/14 07:58:14;;;;;;;;;;;15.50;99.90;;;;;;5052787;28;19916;-65
2022/09/14 08:00:39;;;;;;;;;;;15.60;99.90;;;;;;5052126;28;20329;-65
2022/09/14 08:03:05;;;;;;;;;;;15.70;99.90;;;;;;5051102;28;20300;-65
2022/09/14 08:05:30;;;;;;;;;;;15.80;99.90;;;;;;5050811;28;19928;-65
2022/09/14 08:07:56;;;;;;;;;;;15.80;99.90;;;;;;5049385;28;19925;-65
2022/09/14 08:10:23;;;;;;;;;;;15.90;99.90;;;;;;5051986;28;19916;-65
2022/09/14 08:12:52;;;;;;;;;;;16.00;99.90;;;;;;5049358;28;20051;-65
2022/09/14 08:15:18;;;;;;;;;;;16.10;99.90;;;;;;5046358;28;20411;-65
2022/09/14 08:17:43;;;;;;;;;;;16.10;99.90;;;;;;5050668;28;19920;-65
2022/09/14 08:20:09;;;;;;;;;;;16.10;99.90;;;;;;5052338;28;19923;-65
2022/09/14 08:22:34;;;;;;;;;;;16.20;99.90;;;;;;5045110;28;19920;-65
2022/09/14 08:25:00;;;;;;;;;;;16.30;99.90;;;;;;5046303;28;19964;-65
2022/09/14 08:27:25;;;;;;;;;;;16.30;99.90;;;;;;5066805;28;19923;-65
2022/09/14 08:29:51;;;;;;;;;;;16.30;99.90;;;;;;5045745;28;20411;-65
2022/09/14 08:32:16;;;;;;;;;;;16.40;99.90;;;;;;5047554;28;19916;-65
2022/09/14 08:34:42;;;;;;;;;;;16.50;99.90;;;;;;5069111;28;19917;-65
2022/09/14 08:37:09;;;;;;;;;;;16.50;99.90;;;;;;5048695;28;19975;-65
2022/09/14 08:39:35;;;;;;;;;;;16.50;99.90;;;;;;5049118;28;20287;-65
2022/09/14 08:42:01;;;;;;;;;;;16.60;99.90;;;;;;5046564;28;19921;-65
2022/09/14 08:44:36;;;;;;;;;;;16.60;99.90;;;;;;5042749;28;20288;-65
2022/09/14 08:47:03;;;;;;;;;;;16.70;99.90;;;;;;5049800;28;19923;-65
2022/09/14 08:49:34;;;;;;;;;;;16.80;99.90;;;;;;5049854;28;19920;-65
2022/09/14 08:52:00;;;;;;;;;;;16.80;99.90;;;;;;5047732;28;19916;-65
2022/09/14 08:54:28;;;;;;;;;;;16.90;99.90;;;;;;5046585;28;19917;-65
2022/09/14 08:56:59;;;;;;;;;;;16.90;99.90;;;;;;5038845;28;19923;-65
2022/09/14 08:59:27;;;;;;;;;;;17.00;99.90;;;;;;5052423;28;19920;-65
2022/09/14 09:01:58;;;;;;;;;;;17.10;99.90;;;;;;5049705;28;19921;-65
2022/09/14 09:04:31;;;;;;;;;;;17.20;99.90;;;;;;5046506;28;19924;-65
2022/09/14 09:07:01;;;;;;;;;;;17.20;99.90;;;;;;5049389;28;19942;-65
2022/09/14 09:09:31;;;;;;;;;;;17.30;99.90;;;;;;5045145;28;20780;-66
2022/09/14 09:11:56;;;;;;;;;;;17.40;99.90;;;;;;5058032;28;19924;-66
2022/09/14 09:14:28;;;;;;;;;;;17.40;99.90;;;;;;5049648;28;19923;-65
2022/09/14 09:16:55;;;;;;;;;;;17.50;99.90;;;;;;5049296;28;19917;-65
2022/09/14 09:19:41;;;;;;;;;;;17.60;99.90;;;;;;5050210;28;19917;-65
2022/09/14 09:22:13;;;;;;;;;;;17.70;99.90;;;;;;4992997;28;19921;-65
2022/09/14 09:24:44;;;;;;;;;;;17.80;99.90;;;;;;5028093;28;19916;-66
2022/09/14 09:27:10;;;;;;;;;;;17.90;99.90;;;;;;5041776;28;19916;-65
2022/09/14 09:29:37;;;;;;;;;;;17.90;99.90;;;;;;5049900;28;19964;-66
2022/09/14 09:32:04;;;;;;;;;;;17.90;99.90;;;;;;5061987;28;19978;-66
2022/09/14 09:34:30;;;;;;;;;;;17.90;99.90;;;;;;5047541;28;19916;-65
2022/09/14 09:36:55;;;;;;;;;;;17.90;99.90;;;;;;5043904;28;19939;-65
2022/09/14 09:39:24;;;;;;;;;;;17.90;99.90;;;;;;5047484;28;19920;-66
2022/09/14 09:41:59;;;;;;;;;;;18.00;99.90;;;;;;5049737;28;19917;-65
2022/09/14 09:44:24;;;;;;;;;;;17.90;99.90;;;;;;5045188;28;19917;-66
2022/09/14 09:46:54;;;;;;;;;;;17.90;99.90;;;;;;5042622;28;19917;-66
2022/09/14 09:49:23;;;;;;;;;;;17.90;99.90;;;;;;5050320;28;20407;-65
2022/09/14 09:51:49;;;;;;;;;;;17.90;99.90;;;;;;5050547;28;19917;-66
2022/09/14 09:54:15;;;;;;;;;;;17.90;99.90;;;;;;5047866;28;19923;-66
2022/09/14 09:56:53;;;;;;;;;;;18.00;99.90;;;;;;5048049;28;19924;-66
2022/09/14 09:59:21;;;;;;;;;;;18.00;99.90;;;;;;5047867;28;19978;-65
2022/09/14 10:01:47;;;;;;;;;;;18.10;99.90;;;;;;5046840;28;19977;-65
2022/09/14 10:04:20;;;;;;;;;;;18.20;99.90;;;;;;5050773;28;19916;-65
2022/09/14 10:06:47;;;;;;;;;;;18.30;99.90;;;;;;5044496;28;19928;-65
2022/09/14 10:09:14;;;;;;;;;;;18.40;99.90;;;;;;5044056;28;20035;-65
2022/09/14 10:11:39;;;;;;;;;;;18.60;99.90;;;;;;5045949;28;19926;-65
2022/09/14 10:14:17;;;;;;;;;;;18.60;99.90;;;;;;5046842;28;19921;-65
2022/09/14 10:16:43;;;;;;;;;;;18.60;99.90;;;;;;5047138;28;19943;-65
2022/09/14 10:19:23;;;;;;;;;;;18.60;99.90;;;;;;5065730;28;19925;-65
2022/09/14 10:22:03;;;;;;;;;;;18.60;99.90;;;;;;5047085;28;19927;-65
2022/09/14 10:24:29;;;;;;;;;;;18.60;99.90;;;;;;5047709;28;19951;-66
2022/09/14 10:26:55;;;;;;;;;;;18.60;99.90;;;;;;5049431;28;19962;-65
2022/09/14 10:29:39;;;;;;;;;;;18.60;99.90;;;;;;5047272;28;19917;-65
2022/09/14 10:32:25;;;;;;;;;;;18.80;99.90;;;;;;5043787;28;20015;-65
2022/09/14 10:34:50;;;;;;;;;;;19.00;99.90;;;;;;5041329;28;19957;-65
2022/09/14 10:37:49;;;;;;;;;;;19.40;99.90;;;;;;5049240;28;19991;-65
2022/09/14 10:40:18;;;;;;;;;;;19.70;99.90;;;;;;5046059;28;20281;-65
2022/09/14 10:43:07;;;;;;;;;;;19.90;99.90;;;;;;5044223;28;20292;-65
2022/09/14 10:45:40;;;;;;;;;;;20.10;99.90;;;;;;5026771;28;20304;-65
2022/09/14 10:48:18;;;;;;;;;;;20.30;99.90;;;;;;5041778;28;20304;-65
2022/09/14 10:51:00;;;;;;;;;;;20.50;99.90;;;;;;5052960;28;19978;-65
2022/09/14 10:53:45;;;;;;;;;;;20.50;99.90;;;;;;5052374;28;19916;-65
2022/09/14 10:56:23;;;;;;;;;;;20.50;99.90;;;;;;5052430;28;19917;-66
2022/09/14 10:59:07;;;;;;;;;;;20.30;99.90;;;;;;5050996;28;19967;-65
2022/09/14 11:01:41;;;;;;;;;;;20.20;99.90;;;;;;5055709;28;20433;-65
2022/09/14 11:04:07;;;;;;;;;;;20.00;99.90;;;;;;5048144;28;19921;-65
2022/09/14 11:06:32;;;;;;;;;;;19.80;99.90;;;;;;5050003;28;20365;-66
2022/09/14 11:09:05;;;;;;;;;;;19.70;99.90;;;;;;5053534;28;19972;-65
2022/09/14 11:11:49;;;;;;;;;;;19.60;99.90;;;;;;5051945;28;19920;-65
2022/09/14 11:14:17;;;;;;;;;;;19.50;99.90;;;;;;5047805;28;19916;-65
2022/09/14 11:16:46;;;;;;;;;;;19.40;99.90;;;;;;5049454;28;19971;-65
2022/09/14 11:19:15;;;;;;;;;;;19.30;99.90;;;;;;5049379;28;19928;-65
2022/09/14 11:21:55;;;;;;;;;;;19.30;99.90;;;;;;5043670;28;19916;-65
2022/09/14 11:24:21;;;;;;;;;;;19.30;99.90;;;;;;5050458;28;19937;-65
2022/09/14 11:26:58;;;;;;;;;;;19.30;99.90;;;;;;5048177;28;19917;-65
2022/09/14 11:29:30;;;;;;;;;;;19.40;99.90;;;;;;5050318;28;19917;-65
2022/09/14 11:31:59;;;;;;;;;;;19.40;99.90;;;;;;5051849;28;20038;-65
2022/09/14 11:34:30;;;;;;;;;;;19.70;99.90;;;;;;5049419;28;20525;-65
2022/09/14 11:37:08;;;;;;;;;;;20.00;99.90;;;;;;5052666;28;19922;-65
2022/09/14 11:39:42;;;;;;;;;;;20.30;99.90;;;;;;5047441;28;20069;-65
2022/09/14 11:42:15;;;;;;;;;;;20.50;99.90;;;;;;5044582;28;19929;-65
2022/09/14 11:44:43;;;;;;;;;;;20.60;99.90;;;;;;5051860;28;19923;-65
2022/09/14 11:47:12;;;;;;;;;;;20.90;99.90;;;;;;5052730;28;19928;-65
2022/09/14 11:49:44;;;;;;;;;;;21.10;99.50;;;;;;5048243;28;19917;-65
2022/09/14 11:52:18;;;;;;;;;;;21.00;97.70;;;;;;5049134;28;19917;-65
2022/09/14 11:54:44;;;;;;;;;;;21.00;98.40;;;;;;5044976;28;19956;-65
2022/09/14 11:57:14;;;;;;;;;;;20.80;98.40;;;;;;5057287;28;20336;-65
2022/09/14 11:59:39;;;;;;;;;;;20.80;98.80;;;;;;5049101;28;19921;-65
2022/09/14 12:02:23;;;;;;;;;;;20.60;98.80;;;;;;5042741;28;20022;-65
2022/09/14 12:05:07;;;;;;;;;;;20.50;98.70;;;;;;5048027;28;19928;-65
2022/09/14 12:07:38;;;;;;;;;;;20.30;98.90;;;;;;5047488;28;19962;-65
2022/09/14 12:10:16;;;;;;;;;;;20.20;98.90;;;;;;5060667;28;19975;-65
2022/09/14 12:12:45;;;;;;;;;;;20.10;99.20;;;;;;5049658;28;20471;-65
2022/09/14 12:15:15;;;;;;;;;;;19.90;99.10;;;;;;5047097;28;19917;-65
2022/09/14 12:17:41;;;;;;;;;;;19.90;99.30;;;;;;5048434;28;19917;-65
2022/09/14 12:20:26;;;;;;;;;;;19.80;99.60;;;;;;5049453;28;20348;-65
2022/09/14 12:23:02;;;;;;;;;;;19.70;99.90;;;;;;5050404;28;19921;-65
2022/09/14 12:25:28;;;;;;;;;;;19.70;99.90;;;;;;5044796;28;20028;-65
2022/09/14 12:27:53;;;;;;;;;;;19.60;99.90;;;;;;5046925;28;20443;-65
2022/09/14 12:30:37;;;;;;;;;;;19.60;99.90;;;;;;5045992;28;19916;-64
2022/09/14 12:33:03;;;;;;;;;;;19.70;99.90;;;;;;5047348;28;19970;-64
2022/09/14 12:35:38;;;;;;;;;;;20.00;99.90;;;;;;5046032;28;19924;-64
2022/09/14 12:38:23;;;;;;;;;;;20.30;99.90;;;;;;5047884;28;20363;-64
2022/09/14 12:40:49;;;;;;;;;;;20.50;98.20;;;;;;5039619;28;19929;-65
2022/09/14 12:43:36;;;;;;;;;;;20.70;98.50;;;;;;5054617;28;19967;-64
2022/09/14 12:46:02;;;;;;;;;;;20.70;96.90;;;;;;5049356;28;20355;-64
2022/09/14 12:48:46;;;;;;;;;;;20.70;95.80;;;;;;5048549;28;19963;-64
2022/09/14 12:51:23;;;;;;;;;;;20.60;96.30;;;;;;5039218;28;19936;-65
2022/09/14 12:54:02;;;;;;;;;;;20.70;97.00;;;;;;5043280;28;19956;-65
2022/09/14 12:56:31;;;;;;;;;;;20.70;96.30;;;;;;5044487;28;19917;-65
2022/09/14 12:59:15;;;;;;;;;;;20.70;96.40;;;;;;5043698;28;20059;-65
2022/09/14 13:01:47;;;;;;;;;;;20.70;96.40;;;;;;5048090;28;19917;-64
2022/09/14 13:04:15;;;;;;;;;;;20.80;96.20;;;;;;5048531;28;19923;-65
2022/09/14 13:06:43;;;;;;;;;;;20.60;95.00;;;;;;5047716;28;19940;-65
2022/09/14 13:09:18;;;;;;;;;;;20.50;95.10;;;;;;5046873;28;19928;-65
2022/09/14 13:11:45;;;;;;;;;;;20.30;95.30;;;;;;5055621;28;19917;-64
2022/09/14 13:14:16;;;;;;;;;;;20.20;95.70;;;;;;5043343;28;19923;-64
2022/09/14 13:16:43;;;;;;;;;;;20.20;96.50;;;;;;5048901;28;19920;-65
2022/09/14 13:19:22;;;;;;;;;;;20.20;96.80;;;;;;5050496;28;19925;-65
2022/09/14 13:21:49;;;;;;;;;;;20.20;97.00;;;;;;5047375;28;19916;-65
2022/09/14 13:24:29;;;;;;;;;;;20.20;97.00;;;;;;5047242;28;19917;-65
2022/09/14 13:26:57;;;;;;;;;;;20.20;96.20;;;;;;5046507;28;19940;-65
2022/09/14 13:29:25;;;;;;;;;;;20.20;96.70;;;;;;5047799;28;19916;-65
2022/09/14 13:31:51;;;;;;;;;;;20.40;97.20;;;;;;5047337;28;19917;-65
2022/09/14 13:34:19;;;;;;;;;;;20.60;97.30;;;;;;5049115;28;19922;-65
2022/09/14 13:36:45;;;;;;;;;;;20.80;97.90;;;;;;5046923;28;19923;-65
2022/09/14 13:39:31;;;;;;;;;;;21.10;97.60;;;;;;5045470;28;19925;-64
2022/09/14 13:41:57;;;;;;;;;;;21.30;97.20;;;;;;5062831;28;19917;-64
2022/09/14 13:44:33;;;;;;;;;;;21.50;95.50;;;;;;5048592;28;20320;-65
2022/09/14 13:47:02;;;;;;;;;;;21.60;95.90;;;;;;5042591;28;19924;-65
2022/09/14 13:49:27;;;;;;;;;;;21.70;95.80;;;;;;5050304;28;19964;-65
2022/09/14 13:52:13;;;;;;;;;;;21.80;96.00;;;;;;5047106;28;20029;-65
2022/09/14 13:54:39;;;;;;;;;;;21.80;95.30;;;;;;5060911;28;19939;-65
2022/09/14 13:57:14;;;;;;;;;;;21.80;95.90;;;;;;5048530;28;20432;-65
2022/09/14 13:59:59;;;;;;;;;;;21.90;96.10;;;;;;5043834;28;20016;-65
2022/09/14 14:02:25;;;;;;;;;;;21.90;96.00;;;;;;5048913;28;19916;-65
2022/09/14 14:04:51;;;;;;;;;;;22.00;95.30;;;;;;5041793;28;19917;-65
2022/09/14 14:07:20;;;;;;;;;;;22.00;94.90;;;;;;5046872;28;20292;-65
2022/09/14 14:09:50;;;;;;;;;;;21.90;94.50;;;;;;5048347;28;20230;-65
2022/09/14 14:12:21;;;;;;;;;;;21.90;94.60;;;;;;5046164;28;19917;-65
2022/09/14 14:14:54;;;;;;;;;;;21.80;94.60;;;;;;5048410;28;19916;-65
2022/09/14 14:17:28;;;;;;;;;;;21.80;95.00;;;;;;5049532;28;19916;-65
2022/09/14 14:19:56;;;;;;;;;;;21.80;94.90;;;;;;5066015;28;19932;-65
2022/09/14 14:22:24;;;;;;;;;;;21.70;94.70;;;;;;5053274;28;19916;-65
2022/09/14 14:24:50;;;;;;;;;;;21.60;94.60;;;;;;5056718;28;20304;-65
2022/09/14 14:27:35;;;;;;;;;;;21.60;94.70;;;;;;5054678;28;19917;-65